Time;durP1;ratioP1;P1;durP2;ratioP2;P2;SDS_P1;SDS_P2;PMS_P1;PMS_P2;Temp;Humidity;BMP_temperature;BMP_pressure;BME280_temperature;BME280_humidity;BME280_pressure;Samples;Min_cycle;Max_cycle;Signal;HPM_P1;HPM_P2
2021/01/17 00:00:55;;;;;;;4.57;1.10;;;24.80;57.20;;;;;;4993689;28;20320;-65
2021/01/17 00:03:22;;;;;;;7.80;1.60;;;24.90;59.00;;;;;;4983802;28;20208;-64
2021/01/17 00:05:51;;;;;;;6.77;1.43;;;24.80;61.10;;;;;;4987425;28;20189;-66
2021/01/17 00:08:19;;;;;;;7.47;1.63;;;24.80;64.10;;;;;;4983794;28;20178;-65
2021/01/17 00:10:46;;;;;;;8.40;1.40;;;24.90;63.80;;;;;;4987944;28;20186;-66
2021/01/17 00:13:14;;;;;;;7.23;1.30;;;24.20;65.50;;;;;;4991469;28;20185;-66
2021/01/17 00:15:42;;;;;;;10.37;1.40;;;24.10;68.20;;;;;;4986981;28;20273;-66
2021/01/17 00:18:10;;;;;;;8.57;1.47;;;24.40;68.00;;;;;;4985140;28;20189;-66
2021/01/17 00:20:37;;;;;;;8.20;1.40;;;24.70;66.30;;;;;;4974990;28;20202;-68
2021/01/17 00:23:07;;;;;;;8.90;1.73;;;25.10;66.90;;;;;;4978318;28;20277;-68
2021/01/17 00:25:36;;;;;;;7.13;1.70;;;25.10;65.80;;;;;;4986374;28;20178;-68
2021/01/17 00:28:04;;;;;;;10.20;1.90;;;25.20;66.10;;;;;;4978492;28;20637;-66
2021/01/17 00:30:34;;;;;;;6.70;1.80;;;25.40;65.90;;;;;;4988159;28;20257;-68
2021/01/17 00:33:03;;;;;;;10.23;1.33;;;25.40;66.60;;;;;;4992942;28;20217;-70
2021/01/17 00:35:32;;;;;;;8.43;1.70;;;25.40;65.60;;;;;;4990852;28;20260;-67
2021/01/17 00:38:01;;;;;;;4.93;1.27;;;25.60;65.00;;;;;;5011526;28;20173;-67
2021/01/17 00:40:29;;;;;;;5.63;1.57;;;25.40;65.40;;;;;;5000152;28;20771;-72
2021/01/17 00:42:57;;;;;;;6.33;1.17;;;25.40;66.70;;;;;;4978123;28;20182;-71
2021/01/17 00:45:29;;;;;;;8.23;1.60;;;25.60;66.00;;;;;;4982244;28;20236;-72
2021/01/17 00:47:56;;;;;;;8.60;1.70;;;25.70;66.30;;;;;;4991703;28;20273;-70
2021/01/17 00:50:25;;;;;;;10.47;2.10;;;25.90;65.60;;;;;;4988966;28;20189;-70
2021/01/17 00:52:54;;;;;;;6.50;1.47;;;26.00;65.60;;;;;;4981605;28;20183;-67
2021/01/17 00:55:22;;;;;;;7.40;1.60;;;26.10;66.00;;;;;;4978044;28;20788;-67
2021/01/17 00:57:50;;;;;;;8.60;2.00;;;26.10;65.30;;;;;;4980645;28;20186;-68
2021/01/17 01:00:21;;;;;;;5.33;1.30;;;26.30;65.10;;;;;;4992853;28;20214;-67
2021/01/17 01:02:48;;;;;;;5.43;1.63;;;26.30;64.50;;;;;;4979606;28;20194;-67
2021/01/17 01:05:16;;;;;;;8.20;1.80;;;26.10;65.50;;;;;;4985596;28;20537;-66
2021/01/17 01:07:43;;;;;;;9.70;2.20;;;26.00;65.60;;;;;;4987075;28;20185;-66
2021/01/17 01:10:12;;;;;;;7.30;1.47;;;26.20;65.10;;;;;;4973421;28;20265;-66
2021/01/17 01:12:40;;;;;;;10.77;1.50;;;26.50;65.60;;;;;;4979920;28;20230;-65
2021/01/17 01:15:08;;;;;;;6.97;1.40;;;26.60;65.20;;;;;;4991842;28;20533;-66
2021/01/17 01:17:35;;;;;;;7.97;2.00;;;26.30;65.00;;;;;;4992392;28;20177;-65
2021/01/17 01:20:05;;;;;;;8.67;1.50;;;26.40;65.80;;;;;;4993063;28;20197;-65
2021/01/17 01:22:33;;;;;;;9.80;1.73;;;26.50;65.50;;;;;;4992953;28;20566;-66
2021/01/17 01:25:00;;;;;;;4.87;1.50;;;26.60;65.60;;;;;;4993035;28;20537;-67
2021/01/17 01:27:28;;;;;;;10.77;1.80;;;26.80;63.80;;;;;;4990509;28;20181;-66
2021/01/17 01:29:55;;;;;;;8.87;1.77;;;26.80;64.40;;;;;;4993018;28;20250;-65
2021/01/17 01:32:22;;;;;;;10.97;1.97;;;26.70;64.90;;;;;;4993000;28;20186;-66
2021/01/17 01:34:50;;;;;;;8.07;2.03;;;26.70;65.00;;;;;;4982770;28;20186;-68
2021/01/17 01:37:17;;;;;;;10.33;2.03;;;26.60;65.90;;;;;;4980319;28;20174;-66
2021/01/17 01:39:45;;;;;;;7.23;1.37;;;26.80;64.90;;;;;;4991762;28;20212;-66
2021/01/17 01:42:12;;;;;;;9.67;1.70;;;26.80;65.90;;;;;;4992419;28;20244;-68
2021/01/17 01:44:39;;;;;;;8.97;1.90;;;26.80;64.70;;;;;;4992077;28;20208;-67
2021/01/17 01:47:15;;;;;;;8.40;1.73;;;26.90;63.70;;;;;;4992367;28;20193;-67
2021/01/17 01:49:43;;;;;;;6.60;1.87;;;26.90;63.20;;;;;;4993106;28;20272;-68
2021/01/17 01:52:14;;;;;;;8.27;1.60;;;27.10;64.00;;;;;;4989879;28;20655;-69
2021/01/17 01:54:42;;;;;;;9.43;1.83;;;27.10;63.20;;;;;;4992579;28;20189;-67
2021/01/17 01:57:09;;;;;;;8.37;1.80;;;27.10;62.90;;;;;;4993105;28;20189;-67
2021/01/17 01:59:37;;;;;;;8.27;1.70;;;27.40;61.60;;;;;;4992707;28;20206;-68
2021/01/17 02:02:10;;;;;;;9.50;2.10;;;27.70;62.50;;;;;;4992842;28;20245;-67
2021/01/17 02:04:38;;;;;;;5.93;1.57;;;28.10;61.10;;;;;;4992630;28;20218;-67
2021/01/17 02:07:14;;;;;;;8.60;1.80;;;28.00;59.40;;;;;;4991004;28;20185;-67
2021/01/17 02:09:42;;;;;;;6.17;1.83;;;28.10;61.40;;;;;;4996633;28;20190;-66
2021/01/17 02:12:30;;;;;;;10.47;1.47;;;28.10;60.10;;;;;;4995089;28;20325;-66
2021/01/17 02:15:05;;;;;;;7.03;1.57;;;27.70;60.30;;;;;;4996297;28;20675;-66
2021/01/17 02:17:34;;;;;;;7.10;1.50;;;28.00;61.70;;;;;;4996430;28;20201;-67
2021/01/17 02:20:17;;;;;;;14.60;2.27;;;28.30;60.40;;;;;;4996290;28;20210;-67
2021/01/17 02:23:25;;;;;;;10.73;2.00;;;28.20;61.80;;;;;;4996168;28;20193;-69
2021/01/17 02:25:53;;;;;;;7.23;2.17;;;28.40;61.40;;;;;;4990707;28;20528;-65
2021/01/17 02:28:21;;;;;;;9.30;2.27;;;28.30;61.10;;;;;;4996175;28;20224;-68
2021/01/17 02:30:53;;;;;;;11.40;2.17;;;28.20;61.40;;;;;;4995685;28;20178;-67
2021/01/17 02:33:20;;;;;;;10.57;2.23;;;27.80;61.80;;;;;;4996273;28;20862;-67
2021/01/17 02:35:51;;;;;;;8.60;2.40;;;28.10;62.60;;;;;;4996179;28;20196;-69
2021/01/17 02:38:34;;;;;;;12.30;2.00;;;28.00;61.60;;;;;;4995838;28;20261;-68
2021/01/17 02:41:20;;;;;;;8.83;2.47;;;27.80;62.20;;;;;;4995763;28;20700;-67
2021/01/17 02:43:48;;;;;;;11.70;2.00;;;28.20;62.60;;;;;;4994150;28;20174;-67
2021/01/17 02:46:15;;;;;;;14.00;2.93;;;27.80;62.20;;;;;;4994791;28;20181;-70
2021/01/17 02:48:42;;;;;;;13.17;2.60;;;27.00;64.00;;;;;;4995642;28;20658;-68
2021/01/17 02:51:10;;;;;;;12.60;2.53;;;26.60;65.80;;;;;;4995881;28;20178;-70
2021/01/17 02:53:45;;;;;;;10.17;2.50;;;26.20;66.50;;;;;;4995815;28;20174;-67
2021/01/17 02:56:19;;;;;;;11.27;2.27;;;26.00;67.20;;;;;;4995663;28;20244;-68
2021/01/17 02:58:53;;;;;;;8.90;2.40;;;26.00;66.60;;;;;;4995188;28;20185;-66
2021/01/17 03:01:29;;;;;;;10.77;2.37;;;25.80;67.60;;;;;;4995795;28;20251;-69
2021/01/17 03:04:30;;;;;;;10.00;2.47;;;25.80;67.80;;;;;;4995691;28;20541;-69
2021/01/17 03:07:01;;;;;;;14.07;2.57;;;25.70;67.60;;;;;;4976142;28;20213;-69
2021/01/17 03:09:30;;;;;;;13.80;2.30;;;25.40;68.50;;;;;;4995580;28;20545;-69
2021/01/17 03:12:03;;;;;;;11.40;2.43;;;25.60;68.40;;;;;;4993982;28;20645;-68
2021/01/17 03:14:36;;;;;;;14.17;2.53;;;25.50;67.50;;;;;;4995287;28;20632;-69
2021/01/17 03:17:08;;;;;;;10.67;2.47;;;25.40;68.80;;;;;;4995591;28;20193;-70
2021/01/17 03:19:36;;;;;;;14.63;2.73;;;25.30;68.40;;;;;;4994860;28;20182;-68
2021/01/17 03:22:03;;;;;;;11.40;2.53;;;25.70;67.50;;;;;;4995163;28;20640;-69
2021/01/17 03:24:31;;;;;;;13.27;2.87;;;26.00;66.70;;;;;;4995282;28;20213;-70
2021/01/17 03:26:58;;;;;;;16.20;2.50;;;26.00;66.80;;;;;;4994901;28;20177;-67
2021/01/17 03:29:25;;;;;;;15.80;2.47;;;25.90;67.10;;;;;;4995190;28;20185;-65
2021/01/17 03:31:53;;;;;;;6.60;2.30;;;26.00;67.00;;;;;;4995107;28;20192;-67
2021/01/17 03:34:20;;;;;;;14.73;2.63;;;26.00;65.50;;;;;;4993709;28;20193;-65
2021/01/17 03:36:48;;;;;;;16.60;2.20;;;27.00;64.20;;;;;;4975854;28;20249;-70
2021/01/17 03:39:15;;;;;;;9.43;2.00;;;27.60;62.60;;;;;;4991157;28;20197;-71
2021/01/17 03:41:42;;;;;;;12.10;2.13;;;27.70;61.50;;;;;;4993381;28;20213;-70
2021/01/17 03:44:10;;;;;;;7.13;1.60;;;27.70;61.90;;;;;;4994716;28;20201;-71
2021/01/17 03:46:37;;;;;;;8.27;2.40;;;27.90;61.70;;;;;;4994739;28;20627;-68
2021/01/17 03:49:05;;;;;;;10.60;2.20;;;28.00;61.50;;;;;;4994566;28;20178;-72
2021/01/17 03:51:32;;;;;;;9.40;2.70;;;27.80;61.70;;;;;;4993839;28;20196;-70
2021/01/17 03:54:00;;;;;;;10.40;2.30;;;28.20;60.90;;;;;;4994243;28;20190;-69
2021/01/17 03:56:27;;;;;;;9.33;2.60;;;28.00;61.20;;;;;;4994575;28;20221;-70
2021/01/17 03:58:54;;;;;;;13.20;2.37;;;27.80;62.30;;;;;;4994580;28;20174;-71
2021/01/17 04:01:22;;;;;;;9.10;2.20;;;28.00;62.00;;;;;;4994463;28;20221;-71
2021/01/17 04:03:49;;;;;;;9.47;2.10;;;28.00;61.20;;;;;;4994653;28;20182;-69
2021/01/17 04:06:17;;;;;;;17.83;2.67;;;28.20;61.20;;;;;;4975078;28;20218;-67
2021/01/17 04:08:44;;;;;;;13.70;2.87;;;28.10;61.00;;;;;;4975795;28;20190;-72
2021/01/17 04:11:11;;;;;;;13.57;2.47;;;28.50;60.70;;;;;;4977808;28;20192;-70
2021/01/17 04:13:39;;;;;;;12.77;2.77;;;28.50;60.70;;;;;;4994215;28;20178;-71
2021/01/17 04:16:08;;;;;;;7.77;2.27;;;28.20;61.70;;;;;;4988600;28;20545;-69
2021/01/17 04:18:35;;;;;;;11.97;2.50;;;28.80;60.70;;;;;;4993054;28;20651;-65
2021/01/17 04:21:03;;;;;;;12.47;2.63;;;28.60;60.50;;;;;;4993026;28;20568;-71
2021/01/17 04:23:30;;;;;;;9.83;2.30;;;27.80;61.50;;;;;;4993110;28;20194;-67
2021/01/17 04:25:57;;;;;;;9.17;2.67;;;27.80;62.40;;;;;;4993448;28;20181;-68
2021/01/17 04:28:25;;;;;;;7.27;2.37;;;27.30;63.30;;;;;;4994153;28;20170;-70
2021/01/17 04:30:52;;;;;;;12.53;3.00;;;27.00;64.40;;;;;;4986997;28;20660;-67
2021/01/17 04:33:20;;;;;;;9.93;2.53;;;26.60;65.10;;;;;;4992096;28;20645;-67
2021/01/17 04:35:48;;;;;;;12.97;2.60;;;26.20;66.30;;;;;;4989320;28;20593;-69
2021/01/17 04:38:16;;;;;;;8.83;2.27;;;26.30;65.80;;;;;;4992271;28;20201;-70
2021/01/17 04:40:43;;;;;;;10.17;2.30;;;26.10;66.80;;;;;;4992297;28;20241;-66
2021/01/17 04:43:20;;;;;;;12.03;2.77;;;26.10;66.90;;;;;;4992642;28;20174;-70
2021/01/17 04:45:48;;;;;;;15.30;2.60;;;25.90;66.70;;;;;;4985995;28;20193;-70
2021/01/17 04:48:17;;;;;;;13.27;2.43;;;25.60;67.70;;;;;;4992917;28;20269;-67
2021/01/17 04:50:49;;;;;;;10.10;2.30;;;26.10;66.80;;;;;;4992480;28;20244;-68
2021/01/17 04:53:19;;;;;;;14.23;2.97;;;27.10;65.30;;;;;;4985374;28;20532;-67
2021/01/17 04:55:46;;;;;;;13.20;2.43;;;27.60;62.40;;;;;;4979919;28;20223;-70
2021/01/17 04:58:19;;;;;;;10.20;2.33;;;28.10;61.50;;;;;;4988563;28;20533;-69
2021/01/17 05:01:03;;;;;;;9.43;2.33;;;28.20;60.90;;;;;;4991648;28;20696;-70
2021/01/17 05:03:51;;;;;;;11.17;2.40;;;28.00;62.70;;;;;;4993538;28;20636;-67
2021/01/17 05:06:30;;;;;;;11.70;2.80;;;28.20;61.00;;;;;;4980894;28;20186;-68
2021/01/17 05:09:06;;;;;;;10.00;2.10;;;28.70;60.30;;;;;;4992453;28;20540;-72
2021/01/17 05:11:46;;;;;;;12.87;2.20;;;28.10;60.90;;;;;;4993262;28;20200;-69
2021/01/17 05:14:16;;;;;;;14.47;3.07;;;28.60;61.10;;;;;;4993026;28;20609;-69
2021/01/17 05:16:48;;;;;;;9.93;2.87;;;29.40;59.30;;;;;;4992559;28;20186;-72
2021/01/17 05:19:21;;;;;;;16.53;2.30;;;29.60;58.40;;;;;;4993128;28;20190;-70
2021/01/17 05:21:51;;;;;;;12.50;2.30;;;28.90;59.40;;;;;;4978236;28;20247;-69
2021/01/17 05:24:20;;;;;;;13.53;2.77;;;28.60;60.70;;;;;;4992869;28;20213;-70
2021/01/17 05:26:55;;;;;;;14.00;2.30;;;27.90;60.50;;;;;;4992673;28;20232;-68
2021/01/17 05:29:27;;;;;;;7.63;2.13;;;26.90;63.20;;;;;;4993051;28;20553;-68
2021/01/17 05:32:02;;;;;;;10.33;2.50;;;26.70;64.10;;;;;;4992861;28;20178;-70
2021/01/17 05:34:31;;;;;;;11.47;2.63;;;27.30;63.30;;;;;;4981607;28;20648;-70
2021/01/17 05:37:06;;;;;;;9.50;2.10;;;27.90;61.80;;;;;;4985851;28;20194;-68
2021/01/17 05:39:55;;;;;;;7.70;2.23;;;29.00;59.70;;;;;;4990119;28;20648;-69
2021/01/17 05:42:25;;;;;;;10.03;2.30;;;28.90;59.20;;;;;;4993902;28;20178;-68
2021/01/17 05:44:57;;;;;;;12.07;3.00;;;28.80;59.10;;;;;;4992737;28;20181;-68
2021/01/17 05:47:26;;;;;;;7.33;2.03;;;28.80;58.90;;;;;;4996840;28;20178;-68
2021/01/17 05:50:07;;;;;;;11.07;2.47;;;28.90;58.80;;;;;;4992114;28;20526;-69
2021/01/17 05:52:35;;;;;;;8.13;2.10;;;29.30;57.80;;;;;;5001482;28;20260;-74
2021/01/17 05:55:03;;;;;;;11.70;2.13;;;29.20;57.80;;;;;;4994765;28;20292;-69
2021/01/17 05:57:33;;;;;;;9.10;2.20;;;28.70;59.00;;;;;;4983846;28;20241;-70
2021/01/17 06:00:02;;;;;;;9.87;2.37;;;28.30;60.00;;;;;;4996874;28;20217;-72
2021/01/17 06:02:30;;;;;;;11.10;2.73;;;28.10;60.30;;;;;;4997267;28;20239;-70
2021/01/17 06:05:03;;;;;;;10.43;2.93;;;28.40;60.90;;;;;;5002243;28;20182;-71
2021/01/17 06:07:31;;;;;;;8.33;2.33;;;29.00;59.60;;;;;;4988509;28;20179;-69
2021/01/17 06:10:07;;;;;;;10.83;2.33;;;28.50;59.20;;;;;;4996819;28;20197;-69
2021/01/17 06:12:39;;;;;;;15.70;2.70;;;27.80;61.70;;;;;;4995333;28;20185;-68
2021/01/17 06:15:09;;;;;;;11.23;2.20;;;28.10;60.30;;;;;;4996530;28;20187;-69
2021/01/17 06:17:45;;;;;;;9.57;2.63;;;27.70;60.90;;;;;;4997087;28;20196;-68
2021/01/17 06:20:24;;;;;;;11.40;2.80;;;27.70;61.20;;;;;;4995561;28;20304;-68
2021/01/17 06:22:59;;;;;;;11.97;2.93;;;27.90;61.00;;;;;;4993711;28;20201;-67
2021/01/17 06:25:31;;;;;;;7.40;2.37;;;28.30;60.10;;;;;;4992430;28;20185;-69
2021/01/17 06:28:13;;;;;;;12.93;2.67;;;28.20;60.30;;;;;;4995607;28;20630;-69
2021/01/17 06:30:42;;;;;;;7.77;2.53;;;27.70;60.70;;;;;;4994554;28;20174;-71
2021/01/17 06:33:20;;;;;;;11.97;2.30;;;27.30;62.40;;;;;;4994186;28;20181;-71
2021/01/17 06:35:47;;;;;;;10.43;2.53;;;27.40;61.40;;;;;;4985794;28;20225;-71
2021/01/17 06:38:20;;;;;;;11.67;2.60;;;27.00;62.90;;;;;;4994893;28;20227;-71
2021/01/17 06:40:49;;;;;;;11.00;2.60;;;26.50;63.10;;;;;;4994262;28;20221;-69
2021/01/17 06:43:17;;;;;;;11.23;2.40;;;26.50;64.00;;;;;;4989208;28;20221;-69
2021/01/17 06:45:46;;;;;;;13.73;2.73;;;26.00;65.00;;;;;;4994098;28;20197;-69
2021/01/17 06:48:27;;;;;;;9.70;2.37;;;26.40;64.60;;;;;;4994806;28;20794;-67
2021/01/17 06:50:55;;;;;;;11.83;2.80;;;27.00;63.60;;;;;;4986525;28;20691;-67
2021/01/17 06:53:26;;;;;;;15.47;2.50;;;27.00;62.70;;;;;;4992682;28;20233;-68
2021/01/17 06:56:16;;;;;;;14.63;3.17;;;26.60;64.00;;;;;;4995144;28;20319;-68
2021/01/17 06:58:46;;;;;;;19.43;4.13;;;26.30;64.40;;;;;;4992396;28;20538;-69
2021/01/17 07:01:16;;;;;;;13.03;5.50;;;26.80;64.20;;;;;;4987896;28;20222;-69
2021/01/17 07:04:11;;;;;;;14.03;2.43;;;26.50;64.30;;;;;;4991651;28;20182;-69
2021/01/17 07:06:45;;;;;;;13.43;2.70;;;26.70;64.00;;;;;;4995430;28;20244;-67
2021/01/17 07:09:38;;;;;;;10.80;2.80;;;27.00;62.50;;;;;;4984972;28;20182;-67
2021/01/17 07:12:12;;;;;;;8.77;2.13;;;27.20;61.90;;;;;;4964788;28;20189;-68
2021/01/17 07:14:42;;;;;;;9.70;2.60;;;27.10;62.80;;;;;;4988367;28;20200;-69
2021/01/17 07:17:11;;;;;;;14.20;3.10;;;26.60;63.70;;;;;;4983786;28;20194;-70
2021/01/17 07:19:47;;;;;;;17.63;3.17;;;25.70;65.60;;;;;;4990676;28;20191;-68
2021/01/17 07:22:16;;;;;;;11.50;2.70;;;25.20;67.50;;;;;;4992784;28;20193;-68
2021/01/17 07:24:51;;;;;;;15.30;2.93;;;24.90;68.40;;;;;;4995134;28;20186;-67
2021/01/17 07:27:55;;;;;;;15.80;2.90;;;24.70;69.20;;;;;;4989215;28;20193;-66
2021/01/17 07:30:36;;;;;;;11.70;2.53;;;24.60;69.90;;;;;;4993829;28;20273;-67
2021/01/17 07:33:06;;;;;;;11.27;3.37;;;24.30;70.80;;;;;;4994698;28;20182;-67
2021/01/17 07:35:38;;;;;;;10.00;2.60;;;24.10;71.70;;;;;;4994866;28;20182;-67
2021/01/17 07:38:27;;;;;;;14.87;2.70;;;24.20;71.90;;;;;;4978284;28;20664;-68
2021/01/17 07:41:03;;;;;;;10.43;3.23;;;24.20;71.50;;;;;;4991104;28;20222;-69
2021/01/17 07:43:57;;;;;;;13.10;3.17;;;24.20;71.30;;;;;;4985248;28;20236;-72
2021/01/17 07:46:24;;;;;;;14.63;5.20;;;24.20;71.70;;;;;;4986275;28;20553;-67
2021/01/17 07:48:53;;;;;;;13.10;3.20;;;24.10;71.60;;;;;;4990100;28;20191;-67
2021/01/17 07:51:20;;;;;;;10.13;2.90;;;24.00;71.80;;;;;;4986428;28;20648;-67
2021/01/17 07:53:54;;;;;;;9.17;2.20;;;24.00;72.00;;;;;;4989856;28;20225;-67
2021/01/17 07:56:31;;;;;;;12.30;2.53;;;24.10;71.50;;;;;;4992606;28;20245;-67
2021/01/17 07:59:03;;;;;;;15.13;2.70;;;24.10;71.60;;;;;;4993081;28;20589;-66
2021/01/17 08:01:34;;;;;;;11.33;2.30;;;24.10;71.60;;;;;;4994236;28;20683;-66
2021/01/17 08:04:08;;;;;;;17.53;5.87;;;24.20;71.60;;;;;;4993616;28;20174;-65
2021/01/17 08:06:36;;;;;;;18.37;6.50;;;24.20;71.60;;;;;;4983007;28;20670;-66
2021/01/17 08:09:07;;;;;;;11.93;2.97;;;23.90;72.20;;;;;;4977609;28;20178;-67
2021/01/17 08:11:43;;;;;;;12.00;3.53;;;23.90;72.80;;;;;;4990153;28;20186;-67
2021/01/17 08:14:40;;;;;;;10.70;2.67;;;23.60;73.90;;;;;;4979982;28;20183;-68
2021/01/17 08:17:16;;;;;;;14.40;3.03;;;23.60;74.70;;;;;;4990021;28;20299;-68
2021/01/17 08:19:53;;;;;;;12.90;2.80;;;23.50;75.00;;;;;;4989060;28;20284;-67
2021/01/17 08:22:23;;;;;;;10.93;2.50;;;23.40;74.80;;;;;;4993855;28;20181;-68
2021/01/17 08:24:54;;;;;;;11.33;2.40;;;23.40;75.30;;;;;;4991075;28;20256;-67
2021/01/17 08:27:30;;;;;;;16.63;3.10;;;23.30;75.60;;;;;;5089801;27;20903;-69
2021/01/17 08:30:11;;;;;;;17.07;3.17;;;23.30;76.10;;;;;;5068734;28;20252;-67
2021/01/17 08:32:44;;;;;;;14.27;2.80;;;23.20;76.10;;;;;;5068239;28;20278;-68
2021/01/17 08:35:21;;;;;;;16.83;3.70;;;23.20;76.40;;;;;;5061133;28;20195;-66
2021/01/17 08:38:22;;;;;;;10.50;2.43;;;23.20;76.20;;;;;;5068049;28;20190;-66
2021/01/17 08:40:54;;;;;;;12.43;2.70;;;23.00;77.30;;;;;;5064176;28;20190;-68
2021/01/17 08:43:39;;;;;;;12.33;3.03;;;23.00;77.30;;;;;;5067265;28;20653;-67
2021/01/17 08:46:06;;;;;;;8.57;2.30;;;22.90;77.30;;;;;;5070060;28;20298;-70
2021/01/17 08:48:34;;;;;;;14.17;2.33;;;22.80;77.70;;;;;;5065297;28;20183;-68
2021/01/17 08:51:13;;;;;;;10.33;2.30;;;22.80;77.90;;;;;;5066952;28;20332;-68
2021/01/17 08:53:41;;;;;;;11.83;2.73;;;22.80;78.10;;;;;;5083643;28;20787;-71
2021/01/17 08:56:14;;;;;;;15.73;3.17;;;22.80;78.00;;;;;;5068460;28;20557;-66
2021/01/17 08:58:41;;;;;;;11.20;2.50;;;22.70;78.30;;;;;;5067847;28;20175;-68
2021/01/17 09:01:10;;;;;;;10.27;2.60;;;22.60;78.90;;;;;;5068451;28;20213;-67
2021/01/17 09:03:49;;;;;;;19.40;3.83;;;22.50;79.10;;;;;;5068732;28;20190;-66
2021/01/17 09:06:17;;;;;;;18.13;3.03;;;22.50;79.20;;;;;;5068666;28;20215;-66
2021/01/17 09:08:50;;;;;;;9.20;2.87;;;22.60;79.10;;;;;;5067166;28;20172;-67
2021/01/17 09:11:32;;;;;;;16.73;3.93;;;22.60;79.40;;;;;;5065106;28;20209;-67
2021/01/17 09:14:30;;;;;;;12.77;4.37;;;22.60;79.40;;;;;;5061134;28;20258;-67
2021/01/17 09:17:09;;;;;;;12.97;3.23;;;22.60;79.50;;;;;;5067609;28;20274;-68
2021/01/17 09:19:37;;;;;;;15.97;4.23;;;22.50;79.80;;;;;;5067433;28;20220;-69
2021/01/17 09:22:07;;;;;;;14.67;3.20;;;22.50;80.10;;;;;;5068718;28;20171;-67
2021/01/17 09:24:36;;;;;;;12.80;2.57;;;22.50;80.40;;;;;;5068212;28;20262;-67
2021/01/17 09:27:06;;;;;;;15.13;2.63;;;22.40;80.80;;;;;;5067701;28;20319;-68
2021/01/17 09:29:37;;;;;;;12.67;3.00;;;22.40;80.90;;;;;;5067414;28;20210;-66
2021/01/17 09:32:15;;;;;;;14.07;3.07;;;22.30;81.10;;;;;;5068274;28;20183;-67
2021/01/17 09:34:45;;;;;;;16.60;3.13;;;22.30;81.40;;;;;;5067328;28;20191;-67
2021/01/17 09:37:17;;;;;;;13.43;3.37;;;22.30;81.80;;;;;;5060578;28;20181;-67
2021/01/17 09:39:48;;;;;;;10.17;2.50;;;22.20;81.90;;;;;;5052883;28;20191;-66
2021/01/17 09:42:17;;;;;;;20.40;2.73;;;22.20;82.20;;;;;;5053352;28;20176;-67
2021/01/17 09:44:52;;;;;;;11.87;2.40;;;22.20;82.50;;;;;;5052681;28;20661;-67
2021/01/17 09:47:22;;;;;;;17.83;3.23;;;22.20;82.90;;;;;;5044757;28;20219;-67
2021/01/17 09:49:50;;;;;;;14.97;3.70;;;22.20;82.90;;;;;;5054229;28;20263;-67
2021/01/17 09:52:24;;;;;;;9.97;3.00;;;22.10;83.30;;;;;;5054159;28;20263;-66
2021/01/17 09:54:53;;;;;;;16.13;2.90;;;22.00;83.20;;;;;;5054934;28;20187;-66
2021/01/17 09:57:21;;;;;;;16.50;2.77;;;22.10;83.30;;;;;;5054465;28;20196;-70
2021/01/17 09:59:52;;;;;;;15.33;3.37;;;22.20;83.30;;;;;;5054093;28;20546;-68
2021/01/17 10:02:27;;;;;;;13.53;3.10;;;22.30;83.30;;;;;;5053436;28;20667;-66
2021/01/17 10:04:55;;;;;;;13.53;2.83;;;22.30;82.90;;;;;;5053747;28;20183;-68
2021/01/17 10:07:23;;;;;;;20.53;3.73;;;22.20;83.00;;;;;;5054124;28;20238;-67
2021/01/17 10:09:51;;;;;;;11.77;3.03;;;22.20;83.10;;;;;;5054737;28;20180;-67
2021/01/17 10:12:20;;;;;;;18.23;3.50;;;22.30;82.90;;;;;;5042347;28;20188;-68
2021/01/17 10:14:50;;;;;;;18.57;3.33;;;22.30;82.60;;;;;;5052277;28;20180;-67
2021/01/17 10:17:18;;;;;;;16.70;2.83;;;22.40;82.50;;;;;;5054096;28;20176;-66
2021/01/17 10:19:47;;;;;;;14.10;3.03;;;22.40;82.60;;;;;;5052878;28;20675;-67
2021/01/17 10:22:17;;;;;;;19.13;3.30;;;22.30;82.80;;;;;;5053717;28;20188;-67
2021/01/17 10:24:45;;;;;;;14.80;2.70;;;22.30;83.00;;;;;;5053829;28;20188;-67
2021/01/17 10:27:16;;;;;;;15.77;3.20;;;22.30;83.00;;;;;;5052467;28;20227;-68
2021/01/17 10:29:44;;;;;;;13.97;2.50;;;22.40;82.90;;;;;;5052612;28;20546;-67
2021/01/17 10:32:13;;;;;;;12.23;2.97;;;22.40;82.80;;;;;;5053980;28;20188;-66
2021/01/17 10:34:45;;;;;;;12.57;2.47;;;22.40;83.10;;;;;;5053564;28;20184;-67
2021/01/17 10:37:14;;;;;;;19.07;2.40;;;22.30;83.20;;;;;;5054234;28;20264;-67
2021/01/17 10:39:42;;;;;;;12.33;2.33;;;22.30;83.30;;;;;;5053916;28;20203;-68
2021/01/17 10:42:30;;;;;;;13.00;2.70;;;22.30;83.30;;;;;;5053793;28;20188;-67
2021/01/17 10:45:10;;;;;;;13.27;3.17;;;22.40;83.40;;;;;;5047735;28;20188;-67
2021/01/17 10:47:53;;;;;;;15.53;3.40;;;22.30;83.50;;;;;;5051883;28;20192;-67
2021/01/17 10:50:23;;;;;;;10.27;2.33;;;22.20;84.00;;;;;;5050930;28;20642;-67
2021/01/17 10:53:10;;;;;;;9.90;2.40;;;22.30;84.00;;;;;;5051874;28;20202;-67
2021/01/17 10:55:40;;;;;;;15.20;3.10;;;22.30;84.20;;;;;;5044871;28;20180;-66
2021/01/17 10:58:13;;;;;;;12.80;3.07;;;22.30;84.30;;;;;;5052110;28;20259;-68
2021/01/17 11:00:51;;;;;;;12.53;3.13;;;22.30;84.20;;;;;;5050041;28;20215;-66
2021/01/17 11:03:27;;;;;;;14.20;2.87;;;22.30;84.30;;;;;;5049963;28;20221;-67
2021/01/17 11:06:28;;;;;;;16.20;3.17;;;22.30;84.40;;;;;;5053270;28;20265;-67
2021/01/17 11:09:01;;;;;;;15.27;2.90;;;22.40;84.20;;;;;;5045705;28;20192;-68
2021/01/17 11:11:30;;;;;;;11.73;3.43;;;22.40;84.30;;;;;;5047914;28;20270;-66
2021/01/17 11:14:05;;;;;;;17.47;5.50;;;22.30;84.40;;;;;;5053573;28;20575;-67
2021/01/17 11:16:53;;;;;;;15.67;3.67;;;22.30;85.00;;;;;;5053912;28;20529;-66
2021/01/17 11:19:32;;;;;;;13.77;3.03;;;22.20;85.00;;;;;;5047170;28;20638;-66
2021/01/17 11:21:59;;;;;;;14.73;3.17;;;22.20;85.00;;;;;;5054205;28;20190;-67
2021/01/17 11:24:37;;;;;;;14.77;2.87;;;22.30;85.00;;;;;;5053579;28;20180;-67
2021/01/17 11:27:16;;;;;;;14.20;2.93;;;22.30;85.10;;;;;;5053911;28;20223;-69
2021/01/17 11:29:45;;;;;;;12.07;2.80;;;22.30;85.20;;;;;;5053681;28;20255;-67
2021/01/17 11:32:13;;;;;;;13.13;2.43;;;22.30;84.90;;;;;;5052235;28;20180;-67
2021/01/17 11:34:42;;;;;;;15.57;3.13;;;22.40;85.10;;;;;;5053180;28;20180;-71
2021/01/17 11:37:10;;;;;;;19.03;8.57;;;22.30;85.20;;;;;;5052734;28;20179;-67
2021/01/17 11:39:37;;;;;;;19.67;7.50;;;22.20;85.60;;;;;;5053428;28;20180;-66
2021/01/17 11:42:05;;;;;;;10.43;2.73;;;22.20;85.70;;;;;;5051989;28;20675;-68
2021/01/17 11:44:35;;;;;;;15.13;2.97;;;22.20;85.90;;;;;;5053686;28;20215;-68
2021/01/17 11:47:03;;;;;;;10.80;2.47;;;22.20;86.10;;;;;;5050189;28;20208;-69
2021/01/17 11:49:31;;;;;;;13.67;2.80;;;22.20;85.90;;;;;;5065016;28;20917;-67
2021/01/17 11:52:12;;;;;;;12.60;2.90;;;22.20;85.90;;;;;;5053015;28;20188;-67
2021/01/17 11:54:39;;;;;;;15.63;3.33;;;22.10;86.10;;;;;;5043150;28;20546;-65
2021/01/17 11:57:11;;;;;;;13.93;3.10;;;22.20;86.20;;;;;;5052831;28;20214;-66
2021/01/17 11:59:39;;;;;;;17.13;2.50;;;22.10;86.50;;;;;;5052784;28;20232;-67
2021/01/17 12:02:20;;;;;;;13.33;2.50;;;22.10;86.60;;;;;;5052121;28;20183;-67
2021/01/17 12:04:56;;;;;;;14.93;3.50;;;22.10;86.70;;;;;;5037528;28;20188;-67
2021/01/17 12:07:24;;;;;;;13.87;2.60;;;22.10;86.70;;;;;;5048420;28;20215;-66
2021/01/17 12:10:11;;;;;;;10.30;2.23;;;22.10;86.60;;;;;;5049704;28;20192;-66
2021/01/17 12:12:41;;;;;;;17.53;2.67;;;22.10;86.70;;;;;;5043126;28;20206;-65
2021/01/17 12:15:10;;;;;;;15.73;3.03;;;22.10;87.00;;;;;;5051670;28;20183;-67
2021/01/17 12:17:38;;;;;;;11.90;2.90;;;22.10;87.00;;;;;;5051164;28;20530;-66
2021/01/17 12:20:06;;;;;;;15.20;2.30;;;22.00;87.30;;;;;;5052613;28;20186;-67
2021/01/17 12:22:34;;;;;;;13.77;2.50;;;22.00;87.30;;;;;;5052304;28;20194;-68
2021/01/17 12:25:01;;;;;;;17.00;2.70;;;22.00;87.30;;;;;;5052303;28;20273;-66
2021/01/17 12:27:28;;;;;;;13.63;2.93;;;22.00;87.40;;;;;;5052173;28;20211;-66
2021/01/17 12:29:56;;;;;;;12.47;2.63;;;22.10;87.40;;;;;;5051874;28;20172;-68
2021/01/17 12:32:24;;;;;;;13.73;2.57;;;22.10;87.30;;;;;;5051455;28;20267;-67
2021/01/17 12:34:51;;;;;;;11.30;2.33;;;22.10;87.30;;;;;;5052027;28;20183;-68
2021/01/17 12:37:18;;;;;;;15.23;3.10;;;22.10;87.50;;;;;;5052261;28;20183;-67
2021/01/17 12:39:46;;;;;;;17.63;2.57;;;22.10;87.50;;;;;;5052341;28;20206;-68
2021/01/17 12:42:13;;;;;;;14.63;3.10;;;22.00;87.80;;;;;;5052267;28;20191;-67
2021/01/17 12:44:40;;;;;;;11.40;2.50;;;22.00;87.90;;;;;;5050417;28;20201;-68
2021/01/17 12:47:08;;;;;;;13.70;2.77;;;22.10;87.70;;;;;;5051418;28;20212;-68
2021/01/17 12:49:35;;;;;;;13.67;3.07;;;22.10;88.00;;;;;;5050497;28;20227;-65
2021/01/17 12:52:02;;;;;;;12.87;2.70;;;22.10;88.00;;;;;;5052062;28;20183;-66
2021/01/17 12:54:30;;;;;;;13.60;2.70;;;22.10;87.70;;;;;;5052138;28;20571;-69
2021/01/17 12:56:57;;;;;;;14.40;2.77;;;22.10;87.70;;;;;;5041604;28;20211;-66
2021/01/17 12:59:25;;;;;;;13.13;2.80;;;22.10;87.80;;;;;;5051948;28;20275;-68
2021/01/17 13:01:53;;;;;;;13.23;3.10;;;22.00;88.00;;;;;;5050042;28;20188;-68
2021/01/17 13:04:20;;;;;;;11.73;2.77;;;22.00;88.20;;;;;;5051758;28;20278;-68